Time;durP1;ratioP1;P1;durP2;ratioP2;P2;SDS_P1;SDS_P2;PMS_P1;PMS_P2;Temp;Humidity;BMP_temperature;BMP_pressure;BME280_temperature;BME280_humidity;BME280_pressure;Samples;Min_cycle;Max_cycle;Signal;HPM_P1;HPM_P2
2022/04/12 00:00:55;;;;;;;;;;;5.70;82.70;;;;;;5124345;28;20263;-68
2022/04/12 00:03:21;;;;;;;;;;;5.70;82.70;;;;;;5124566;28;19907;-68
2022/04/12 00:05:46;;;;;;;;;;;5.70;83.10;;;;;;5124048;28;19939;-68
2022/04/12 00:08:12;;;;;;;;;;;5.70;83.20;;;;;;5123257;28;19978;-68
2022/04/12 00:10:38;;;;;;;;;;;5.60;83.10;;;;;;5124047;28;20053;-68
2022/04/12 00:13:04;;;;;;;;;;;5.60;82.90;;;;;;5124423;28;19996;-68
2022/04/12 00:15:29;;;;;;;;;;;5.70;82.40;;;;;;5124260;28;19935;-68
2022/04/12 00:20:45;;;;;;;;;;;5.60;82.80;;;;;;5124036;28;19949;-69
2022/04/12 00:23:14;;;;;;;;;;;5.60;83.20;;;;;;5105914;28;19907;-69
2022/04/12 00:25:40;;;;;;;;;;;5.50;82.60;;;;;;5124070;28;19914;-66
2022/04/12 00:28:06;;;;;;;;;;;5.50;82.00;;;;;;5123814;28;20025;-66
2022/04/12 00:30:31;;;;;;;;;;;5.60;81.80;;;;;;5123850;28;20254;-67
2022/04/12 00:32:57;;;;;;;;;;;5.50;82.30;;;;;;5123668;28;19907;-67
2022/04/12 00:35:24;;;;;;;;;;;5.40;82.60;;;;;;5123695;28;19908;-67
2022/04/12 00:37:52;;;;;;;;;;;5.30;82.90;;;;;;5123226;28;20115;-67
2022/04/12 00:40:24;;;;;;;;;;;5.40;82.70;;;;;;5123572;28;19980;-67
2022/04/12 00:42:50;;;;;;;;;;;5.30;82.60;;;;;;5105921;28;19908;-68
2022/04/12 00:45:15;;;;;;;;;;;5.30;83.30;;;;;;5123560;28;19930;-68
2022/04/12 00:47:41;;;;;;;;;;;5.20;83.50;;;;;;5123724;28;20102;-67
2022/04/12 00:50:08;;;;;;;;;;;5.30;83.20;;;;;;5123503;28;19912;-67
2022/04/12 00:52:40;;;;;;;;;;;5.20;83.60;;;;;;5104826;28;20144;-67
2022/04/12 00:55:06;;;;;;;;;;;5.20;84.10;;;;;;5105501;28;19947;-67
2022/04/12 00:57:32;;;;;;;;;;;5.10;84.20;;;;;;5123324;28;19974;-67
2022/04/12 01:00:02;;;;;;;;;;;5.20;84.50;;;;;;5105200;28;19908;-68
2022/04/12 01:02:28;;;;;;;;;;;5.10;84.60;;;;;;5123202;28;19912;-68
2022/04/12 01:04:53;;;;;;;;;;;5.00;84.90;;;;;;5123722;28;19953;-68
2022/04/12 01:07:19;;;;;;;;;;;5.00;85.00;;;;;;5123209;28;19914;-67
2022/04/12 01:09:45;;;;;;;;;;;5.00;85.40;;;;;;5105139;28;19919;-68
2022/04/12 01:12:11;;;;;;;;;;;5.00;85.40;;;;;;5104845;28;20088;-67
2022/04/12 01:14:37;;;;;;;;;;;4.90;85.60;;;;;;5105063;28;20191;-68
2022/04/12 01:17:06;;;;;;;;;;;4.90;85.50;;;;;;5123188;28;20095;-68
2022/04/12 01:19:31;;;;;;;;;;;4.80;85.80;;;;;;5087876;28;19908;-67
2022/04/12 01:22:29;;;;;;;;;;;4.80;85.40;;;;;;5122675;28;19915;-68
2022/04/12 01:24:55;;;;;;;;;;;4.80;85.50;;;;;;5108118;28;20335;-67
2022/04/12 01:27:20;;;;;;;;;;;4.80;85.60;;;;;;5122966;28;19914;-67
2022/04/12 01:29:48;;;;;;;;;;;4.80;85.60;;;;;;5104641;28;19912;-68
2022/04/12 01:32:14;;;;;;;;;;;4.80;85.60;;;;;;5122603;28;19911;-67
2022/04/12 01:34:39;;;;;;;;;;;4.80;85.70;;;;;;5122922;28;19961;-68
2022/04/12 01:37:07;;;;;;;;;;;4.70;86.10;;;;;;5122267;28;19938;-67
2022/04/12 01:39:33;;;;;;;;;;;4.80;86.10;;;;;;5122843;28;19930;-67
2022/04/12 01:41:58;;;;;;;;;;;4.80;86.00;;;;;;5122606;28;19971;-68
2022/04/12 01:44:24;;;;;;;;;;;4.90;87.30;;;;;;5122797;28;19974;-68
2022/04/12 01:46:50;;;;;;;;;;;4.80;87.80;;;;;;5087715;28;19930;-68
2022/04/12 01:49:16;;;;;;;;;;;4.80;88.00;;;;;;5122558;28;19961;-68
2022/04/12 01:51:42;;;;;;;;;;;4.70;88.50;;;;;;5122509;28;19919;-68
2022/04/12 01:54:08;;;;;;;;;;;4.70;88.90;;;;;;5122795;28;19914;-68
2022/04/12 01:56:33;;;;;;;;;;;4.70;89.00;;;;;;5122616;28;20073;-68
2022/04/12 01:59:00;;;;;;;;;;;4.60;89.40;;;;;;5122626;28;19911;-68
2022/04/12 02:01:26;;;;;;;;;;;4.50;89.70;;;;;;5122382;28;19914;-68
2022/04/12 02:03:52;;;;;;;;;;;4.50;89.60;;;;;;5122554;28;19908;-68
2022/04/12 02:06:18;;;;;;;;;;;4.50;89.80;;;;;;5122388;28;20099;-68
2022/04/12 02:08:44;;;;;;;;;;;4.50;90.00;;;;;;5122367;28;19914;-67
2022/04/12 02:11:10;;;;;;;;;;;4.40;90.20;;;;;;5122120;28;19908;-68
2022/04/12 02:13:36;;;;;;;;;;;4.40;90.10;;;;;;5122383;28;19907;-68
2022/04/12 02:16:01;;;;;;;;;;;4.40;90.20;;;;;;5122357;28;19907;-68
2022/04/12 02:18:27;;;;;;;;;;;4.40;90.20;;;;;;5122192;28;19914;-67
2022/04/12 02:20:53;;;;;;;;;;;4.30;90.20;;;;;;5103821;28;19919;-68
2022/04/12 02:23:18;;;;;;;;;;;4.40;90.20;;;;;;5122100;28;20024;-68
2022/04/12 02:25:44;;;;;;;;;;;4.30;90.60;;;;;;5122186;28;19979;-67
2022/04/12 02:28:10;;;;;;;;;;;4.30;90.60;;;;;;5122253;28;20203;-68
2022/04/12 02:30:36;;;;;;;;;;;4.20;90.80;;;;;;5122766;28;19912;-68
2022/04/12 02:33:02;;;;;;;;;;;4.20;90.80;;;;;;5126340;28;19953;-68
2022/04/12 02:35:27;;;;;;;;;;;4.20;90.90;;;;;;5126362;28;19915;-67
2022/04/12 02:37:53;;;;;;;;;;;4.10;90.80;;;;;;5125842;28;19911;-67
2022/04/12 02:40:19;;;;;;;;;;;4.10;91.00;;;;;;5126318;28;19914;-67
2022/04/12 02:42:45;;;;;;;;;;;4.10;91.10;;;;;;5126007;28;19915;-68
2022/04/12 02:45:11;;;;;;;;;;;4.00;91.20;;;;;;5125961;28;19908;-68
2022/04/12 02:47:36;;;;;;;;;;;4.00;91.20;;;;;;5125919;28;19907;-68
2022/04/12 02:50:02;;;;;;;;;;;4.00;91.40;;;;;;5125803;28;19912;-68
2022/04/12 02:52:28;;;;;;;;;;;4.00;91.20;;;;;;5125789;28;19946;-68
2022/04/12 02:54:54;;;;;;;;;;;4.00;91.30;;;;;;5125728;28;20229;-68
2022/04/12 02:57:19;;;;;;;;;;;4.00;91.30;;;;;;5125782;28;19914;-68
2022/04/12 02:59:45;;;;;;;;;;;3.90;91.30;;;;;;5125914;28;20102;-68
2022/04/12 03:02:11;;;;;;;;;;;3.90;91.40;;;;;;5125572;28;19976;-68
2022/04/12 03:04:36;;;;;;;;;;;3.90;91.50;;;;;;5125692;28;19908;-68
2022/04/12 03:07:02;;;;;;;;;;;3.80;91.50;;;;;;5125655;28;19916;-68
2022/04/12 03:09:28;;;;;;;;;;;3.90;91.50;;;;;;5125674;28;20178;-68
2022/04/12 03:11:54;;;;;;;;;;;3.90;91.50;;;;;;5107274;28;20191;-68
2022/04/12 03:14:20;;;;;;;;;;;3.90;91.40;;;;;;5125711;28;19914;-68
2022/04/12 03:16:45;;;;;;;;;;;4.00;91.50;;;;;;5125583;28;19907;-67
2022/04/12 03:19:11;;;;;;;;;;;3.90;91.70;;;;;;5125385;28;19985;-68
2022/04/12 03:21:37;;;;;;;;;;;3.90;91.60;;;;;;5124844;28;19908;-68
2022/04/12 03:24:03;;;;;;;;;;;3.90;91.40;;;;;;5125680;28;19908;-68
2022/04/12 03:26:29;;;;;;;;;;;3.80;91.50;;;;;;5125334;28;19914;-68
2022/04/12 03:28:55;;;;;;;;;;;3.80;91.70;;;;;;5125290;28;19912;-68
2022/04/12 03:31:21;;;;;;;;;;;3.70;91.80;;;;;;5089803;28;19918;-68
2022/04/12 03:33:48;;;;;;;;;;;3.70;92.00;;;;;;5125087;28;19915;-68
2022/04/12 03:36:13;;;;;;;;;;;3.70;92.00;;;;;;5124913;28;19963;-68
2022/04/12 03:38:48;;;;;;;;;;;3.70;91.90;;;;;;5125177;28;19908;-68
2022/04/12 03:41:23;;;;;;;;;;;3.70;91.90;;;;;;5124642;28;19955;-68
2022/04/12 03:43:52;;;;;;;;;;;3.70;92.10;;;;;;5124930;28;19915;-68
2022/04/12 03:46:18;;;;;;;;;;;3.60;92.20;;;;;;5124698;28;19908;-68
2022/04/12 03:48:44;;;;;;;;;;;3.50;92.40;;;;;;5106596;28;20143;-68
2022/04/12 03:51:10;;;;;;;;;;;3.50;92.30;;;;;;5124751;28;19967;-68
2022/04/12 03:53:37;;;;;;;;;;;3.50;92.40;;;;;;5106468;28;19916;-68
2022/04/12 03:56:09;;;;;;;;;;;3.50;92.20;;;;;;5124730;28;19947;-69
2022/04/12 03:58:35;;;;;;;;;;;3.50;92.20;;;;;;5107304;28;20035;-69
2022/04/12 04:01:02;;;;;;;;;;;3.40;92.30;;;;;;5106255;28;19930;-70
2022/04/12 04:03:27;;;;;;;;;;;3.50;92.30;;;;;;5106343;28;19915;-68
2022/04/12 04:05:53;;;;;;;;;;;3.50;92.30;;;;;;5124460;28;19915;-68
2022/04/12 04:08:19;;;;;;;;;;;3.40;92.50;;;;;;5124178;28;19953;-68
2022/04/12 04:10:44;;;;;;;;;;;3.40;92.40;;;;;;5123982;28;20191;-69
2022/04/12 04:13:11;;;;;;;;;;;3.40;92.50;;;;;;5124335;28;19975;-69
2022/04/12 04:15:40;;;;;;;;;;;3.40;92.50;;;;;;5105755;28;19964;-69
2022/04/12 04:18:09;;;;;;;;;;;3.40;92.60;;;;;;5124376;28;19955;-69
2022/04/12 04:20:35;;;;;;;;;;;3.30;92.50;;;;;;5123946;28;20206;-68
2022/04/12 04:23:01;;;;;;;;;;;3.30;92.50;;;;;;5123952;28;19943;-68
2022/04/12 04:25:26;;;;;;;;;;;3.20;92.60;;;;;;5124052;28;19915;-68
2022/04/12 04:27:52;;;;;;;;;;;3.20;92.60;;;;;;5124054;28;20068;-68
2022/04/12 04:30:19;;;;;;;;;;;3.20;92.90;;;;;;5123844;28;19911;-69
2022/04/12 04:32:45;;;;;;;;;;;3.10;92.80;;;;;;5123752;28;19987;-69
2022/04/12 04:35:11;;;;;;;;;;;3.10;92.50;;;;;;5124064;28;19952;-68
2022/04/12 04:37:46;;;;;;;;;;;3.10;92.40;;;;;;5123407;28;19918;-68
2022/04/12 04:40:19;;;;;;;;;;;3.10;92.40;;;;;;5120722;28;19962;-68
2022/04/12 04:42:45;;;;;;;;;;;3.10;92.40;;;;;;5117064;28;19969;-68
2022/04/12 04:45:12;;;;;;;;;;;3.10;92.50;;;;;;5121380;28;20151;-69
2022/04/12 04:47:54;;;;;;;;;;;3.10;92.50;;;;;;5123630;28;19908;-68
2022/04/12 04:50:21;;;;;;;;;;;3.10;92.40;;;;;;5123613;28;19939;-68
2022/04/12 04:52:46;;;;;;;;;;;3.20;92.40;;;;;;5121545;28;20221;-68
2022/04/12 04:55:12;;;;;;;;;;;3.30;92.20;;;;;;5123209;28;19912;-67
2022/04/12 04:57:42;;;;;;;;;;;3.30;92.00;;;;;;5122158;28;19908;-66
2022/04/12 05:00:18;;;;;;;;;;;3.40;91.90;;;;;;5123375;28;19943;-66
2022/04/12 05:02:48;;;;;;;;;;;3.30;91.90;;;;;;5123057;28;20151;-67
2022/04/12 05:05:13;;;;;;;;;;;3.30;91.90;;;;;;5123298;28;20087;-67
2022/04/12 05:07:40;;;;;;;;;;;3.40;91.90;;;;;;5104624;28;19923;-68
2022/04/12 05:10:06;;;;;;;;;;;3.40;91.90;;;;;;5123048;28;20150;-67
2022/04/12 05:12:32;;;;;;;;;;;3.50;91.80;;;;;;5122887;28;19908;-67
2022/04/12 05:14:57;;;;;;;;;;;3.50;92.10;;;;;;5122763;28;19923;-67
2022/04/12 05:17:26;;;;;;;;;;;3.70;92.80;;;;;;5122892;28;20142;-67
2022/04/12 05:19:52;;;;;;;;;;;3.70;91.90;;;;;;5104684;28;19911;-67
2022/04/12 05:22:18;;;;;;;;;;;3.80;92.20;;;;;;5122348;28;19908;-67
2022/04/12 05:24:45;;;;;;;;;;;3.90;92.20;;;;;;5104601;28;19915;-67
2022/04/12 05:27:11;;;;;;;;;;;4.00;91.80;;;;;;5122956;28;20245;-66
2022/04/12 05:29:37;;;;;;;;;;;4.10;91.80;;;;;;5124484;28;19955;-68
2022/04/12 05:32:03;;;;;;;;;;;4.20;91.90;;;;;;5122680;28;19919;-68
2022/04/12 05:34:29;;;;;;;;;;;4.30;91.80;;;;;;5104641;28;20218;-67
2022/04/12 05:36:54;;;;;;;;;;;4.30;91.70;;;;;;5122470;28;19916;-68
2022/04/12 05:39:20;;;;;;;;;;;4.40;91.50;;;;;;5117756;28;20068;-67
2022/04/12 05:41:46;;;;;;;;;;;4.50;91.20;;;;;;5117878;28;19943;-66
2022/04/12 05:44:11;;;;;;;;;;;4.70;91.10;;;;;;5110761;28;19983;-67
2022/04/12 05:46:37;;;;;;;;;;;4.70;90.90;;;;;;5102334;28;19916;-67
2022/04/12 05:49:03;;;;;;;;;;;4.70;90.80;;;;;;5102250;28;19951;-67
2022/04/12 05:51:28;;;;;;;;;;;4.80;90.10;;;;;;5115377;28;20457;-68
2022/04/12 05:53:54;;;;;;;;;;;4.90;90.20;;;;;;5098928;28;20010;-67
2022/04/12 05:56:20;;;;;;;;;;;5.10;89.20;;;;;;5115362;28;20207;-68
2022/04/12 05:58:45;;;;;;;;;;;5.20;89.10;;;;;;5119315;28;19911;-67
2022/04/12 06:01:11;;;;;;;;;;;5.20;89.10;;;;;;5120060;28;19982;-69
2022/04/12 06:03:37;;;;;;;;;;;5.40;89.60;;;;;;5122226;28;19915;-69
2022/04/12 06:06:02;;;;;;;;;;;5.60;89.30;;;;;;5122161;28;19978;-68
2022/04/12 06:08:28;;;;;;;;;;;5.70;88.70;;;;;;5122081;28;19907;-68
2022/04/12 06:10:54;;;;;;;;;;;5.80;87.30;;;;;;5121768;28;20145;-69
2022/04/12 06:13:19;;;;;;;;;;;5.90;84.70;;;;;;5122151;28;19912;-69
2022/04/12 06:15:45;;;;;;;;;;;5.90;86.30;;;;;;5122311;28;19908;-68
2022/04/12 06:18:11;;;;;;;;;;;6.00;86.40;;;;;;5122112;28;19978;-68
2022/04/12 06:20:37;;;;;;;;;;;6.10;86.40;;;;;;5121952;28;20128;-68
2022/04/12 06:23:03;;;;;;;;;;;6.00;86.10;;;;;;5121923;28;19907;-68
2022/04/12 06:25:29;;;;;;;;;;;6.10;85.50;;;;;;5104266;28;20303;-68
2022/04/12 06:27:54;;;;;;;;;;;6.20;85.00;;;;;;5122192;28;19915;-68
2022/04/12 06:30:22;;;;;;;;;;;6.20;84.00;;;;;;5122158;28;19939;-69
2022/04/12 06:32:47;;;;;;;;;;;6.30;83.80;;;;;;5121785;28;19915;-67
2022/04/12 06:35:13;;;;;;;;;;;6.30;83.90;;;;;;5104182;28;19908;-69
2022/04/12 06:37:40;;;;;;;;;;;6.30;83.90;;;;;;5127104;22;19920;-70
2022/04/12 06:40:06;;;;;;;;;;;6.30;84.00;;;;;;5102693;28;19908;-69
2022/04/12 06:42:32;;;;;;;;;;;6.40;84.00;;;;;;5102121;28;20010;-69
2022/04/12 06:44:58;;;;;;;;;;;6.50;84.10;;;;;;5102855;28;19912;-69
2022/04/12 06:47:23;;;;;;;;;;;6.60;83.60;;;;;;5102818;28;19908;-69
2022/04/12 06:49:50;;;;;;;;;;;6.70;83.40;;;;;;5102504;28;20000;-69
2022/04/12 06:52:17;;;;;;;;;;;6.70;82.50;;;;;;5101243;28;19945;-68
2022/04/12 06:54:42;;;;;;;;;;;6.80;82.50;;;;;;5102864;28;19943;-68
2022/04/12 06:57:08;;;;;;;;;;;7.00;82.50;;;;;;5102641;28;19915;-67
2022/04/12 06:59:34;;;;;;;;;;;7.10;82.70;;;;;;5102749;28;19946;-69
2022/04/12 07:02:01;;;;;;;;;;;7.30;82.30;;;;;;5098061;28;20207;-69
2022/04/12 07:04:30;;;;;;;;;;;7.50;81.90;;;;;;5101210;28;19973;-69
2022/04/12 07:06:56;;;;;;;;;;;7.60;81.00;;;;;;5089985;28;19912;-68
2022/04/12 07:09:27;;;;;;;;;;;7.80;79.80;;;;;;5102294;28;19916;-68
2022/04/12 07:11:53;;;;;;;;;;;7.90;78.90;;;;;;5102340;28;19915;-68
2022/04/12 07:14:19;;;;;;;;;;;8.00;80.10;;;;;;5099306;28;20240;-68
2022/04/12 07:16:45;;;;;;;;;;;8.00;80.20;;;;;;5102869;28;19953;-68
2022/04/12 07:19:11;;;;;;;;;;;8.10;80.30;;;;;;5089708;28;20115;-68
2022/04/12 07:21:36;;;;;;;;;;;8.20;80.40;;;;;;5105562;28;19908;-68
2022/04/12 07:24:05;;;;;;;;;;;8.30;80.00;;;;;;5105938;28;20005;-68
2022/04/12 07:26:31;;;;;;;;;;;8.30;79.50;;;;;;5106017;28;20119;-68
2022/04/12 07:28:57;;;;;;;;;;;8.40;79.30;;;;;;5071447;28;20275;-68
2022/04/12 07:31:22;;;;;;;;;;;8.50;79.20;;;;;;5100374;28;20096;-68
2022/04/12 07:33:48;;;;;;;;;;;8.60;78.60;;;;;;5106070;28;19908;-68
2022/04/12 07:36:14;;;;;;;;;;;8.70;78.70;;;;;;5105777;28;20080;-69
2022/04/12 07:38:41;;;;;;;;;;;8.80;78.00;;;;;;5105740;28;19908;-69
2022/04/12 07:41:07;;;;;;;;;;;9.00;75.60;;;;;;5105635;28;19916;-69
2022/04/12 07:43:33;;;;;;;;;;;9.10;73.90;;;;;;5106006;28;20092;-69
2022/04/12 07:45:58;;;;;;;;;;;9.60;67.50;;;;;;5105979;28;19908;-69
2022/04/12 07:48:24;;;;;;;;;;;9.90;66.70;;;;;;5105431;28;20107;-70
2022/04/12 07:50:50;;;;;;;;;;;10.00;69.60;;;;;;5104365;28;19983;-69
2022/04/12 07:53:15;;;;;;;;;;;9.90;72.30;;;;;;5104502;28;19907;-70
2022/04/12 07:55:41;;;;;;;;;;;10.00;70.30;;;;;;5104763;28;19962;-69
2022/04/12 07:58:07;;;;;;;;;;;10.30;66.60;;;;;;5104554;28;19971;-69
2022/04/12 08:00:32;;;;;;;;;;;10.70;61.40;;;;;;5104486;28;19983;-69
2022/04/12 08:02:58;;;;;;;;;;;11.00;61.00;;;;;;5104477;28;19927;-70
2022/04/12 08:05:24;;;;;;;;;;;11.20;59.00;;;;;;5104653;28;19975;-70
2022/04/12 08:07:49;;;;;;;;;;;11.40;58.90;;;;;;5104001;28;19954;-69
2022/04/12 08:10:16;;;;;;;;;;;11.70;56.90;;;;;;5104298;28;19924;-69
2022/04/12 08:12:42;;;;;;;;;;;11.80;56.90;;;;;;5104173;28;19909;-69
2022/04/12 08:15:12;;;;;;;;;;;11.90;56.00;;;;;;5086157;28;19930;-69
2022/04/12 08:17:37;;;;;;;;;;;12.00;56.10;;;;;;5104273;28;19916;-70
2022/04/12 08:20:05;;;;;;;;;;;12.00;54.00;;;;;;5104375;28;19908;-70
2022/04/12 08:22:34;;;;;;;;;;;12.10;54.40;;;;;;5085726;28;19919;-69
2022/04/12 08:25:00;;;;;;;;;;;12.10;53.80;;;;;;5104195;28;19999;-69
2022/04/12 08:27:26;;;;;;;;;;;12.20;53.20;;;;;;5103970;28;19987;-69
2022/04/12 08:29:52;;;;;;;;;;;12.20;53.90;;;;;;5103236;28;19912;-69
2022/04/12 08:32:17;;;;;;;;;;;12.30;53.60;;;;;;5103504;28;19908;-70
2022/04/12 08:34:44;;;;;;;;;;;12.30;54.70;;;;;;5103748;28;20037;-70
2022/04/12 08:37:10;;;;;;;;;;;12.40;53.40;;;;;;5103120;28;20041;-71
2022/04/12 08:39:35;;;;;;;;;;;12.50;52.60;;;;;;5103634;28;19908;-70
2022/04/12 08:42:03;;;;;;;;;;;12.50;52.70;;;;;;5103216;28;20226;-70
2022/04/12 08:44:29;;;;;;;;;;;12.60;52.60;;;;;;5103120;28;20139;-69
2022/04/12 08:46:55;;;;;;;;;;;12.70;53.00;;;;;;5103356;28;19908;-69
2022/04/12 08:49:23;;;;;;;;;;;12.80;52.00;;;;;;5103491;28;19912;-68
2022/04/12 08:51:48;;;;;;;;;;;12.90;52.80;;;;;;5084916;28;20179;-69
2022/04/12 08:54:14;;;;;;;;;;;13.00;51.00;;;;;;5103207;28;19915;-70
2022/04/12 08:56:40;;;;;;;;;;;13.10;51.00;;;;;;5068572;28;19985;-70
2022/04/12 08:59:06;;;;;;;;;;;13.10;50.00;;;;;;5085222;28;19915;-70
2022/04/12 09:01:31;;;;;;;;;;;13.20;50.90;;;;;;5103154;28;19915;-70
2022/04/12 09:03:57;;;;;;;;;;;13.40;50.20;;;;;;5103578;28;19915;-70
2022/04/12 09:06:23;;;;;;;;;;;13.40;51.10;;;;;;5103161;28;19975;-70
2022/04/12 09:08:48;;;;;;;;;;;13.60;49.70;;;;;;5103197;28;19908;-70
2022/04/12 09:11:16;;;;;;;;;;;13.70;49.30;;;;;;5102829;28;20081;-70
2022/04/12 09:13:57;;;;;;;;;;;13.70;51.20;;;;;;5103033;28;19965;-70
2022/04/12 09:16:23;;;;;;;;;;;13.90;49.40;;;;;;5102617;28;19912;-70
2022/04/12 09:18:49;;;;;;;;;;;13.90;48.90;;;;;;5084747;28;19930;-70
2022/04/12 09:21:22;;;;;;;;;;;14.10;50.60;;;;;;5102579;28;19912;-70
2022/04/12 09:23:51;;;;;;;;;;;14.30;47.40;;;;;;5102750;28;20111;-70
2022/04/12 09:26:29;;;;;;;;;;;14.50;46.90;;;;;;5102639;28;19984;-70
2022/04/12 09:28:56;;;;;;;;;;;14.50;45.30;;;;;;5102600;28;19908;-70
2022/04/12 09:31:22;;;;;;;;;;;14.60;45.40;;;;;;5102806;28;19972;-70
2022/04/12 09:33:49;;;;;;;;;;;14.70;43.60;;;;;;5102762;28;20022;-70
2022/04/12 09:36:14;;;;;;;;;;;14.80;42.60;;;;;;5084452;28;19908;-69
2022/04/12 09:38:41;;;;;;;;;;;14.80;43.00;;;;;;5101835;28;19978;-70
2022/04/12 09:41:10;;;;;;;;;;;14.90;43.10;;;;;;5101913;28;20107;-70
2022/04/12 09:44:11;;;;;;;;;;;15.00;43.10;;;;;;5102410;28;19908;-70
2022/04/12 09:46:38;;;;;;;;;;;15.00;42.20;;;;;;5089010;28;20201;-69
2022/04/12 09:49:04;;;;;;;;;;;15.30;41.70;;;;;;5102086;28;19912;-69
2022/04/12 09:51:31;;;;;;;;;;;15.50;42.10;;;;;;5101647;28;19919;-70
2022/04/12 09:53:56;;;;;;;;;;;15.60;42.80;;;;;;5102117;28;19908;-70
2022/04/12 09:56:26;;;;;;;;;;;15.60;44.30;;;;;;5102304;28;19915;-70
2022/04/12 09:58:53;;;;;;;;;;;16.00;40.60;;;;;;5102252;28;19912;-70
2022/04/12 10:01:19;;;;;;;;;;;16.20;40.70;;;;;;5101982;28;19919;-69
2022/04/12 10:03:49;;;;;;;;;;;16.40;38.70;;;;;;5102193;28;19908;-70
2022/04/12 10:06:17;;;;;;;;;;;16.50;39.30;;;;;;5102084;28;19983;-70
2022/04/12 10:08:43;;;;;;;;;;;16.80;39.10;;;;;;5101982;28;20173;-70
2022/04/12 10:11:12;;;;;;;;;;;16.90;39.20;;;;;;5083995;28;19916;-70
2022/04/12 10:13:38;;;;;;;;;;;17.00;39.70;;;;;;5102172;28;19908;-69
2022/04/12 10:16:04;;;;;;;;;;;17.10;38.50;;;;;;5084179;28;19908;-69
2022/04/12 10:18:30;;;;;;;;;;;17.20;37.30;;;;;;5102138;28;19908;-70
2022/04/12 10:20:57;;;;;;;;;;;17.30;37.10;;;;;;5082939;28;19915;-69
2022/04/12 10:23:23;;;;;;;;;;;17.30;36.00;;;;;;5067400;28;19912;-69
2022/04/12 10:25:53;;;;;;;;;;;17.20;36.50;;;;;;5101002;28;19985;-70
2022/04/12 10:28:19;;;;;;;;;;;17.10;37.50;;;;;;5067396;28;19915;-70
2022/04/12 10:30:45;;;;;;;;;;;17.10;38.20;;;;;;5082638;28;19991;-70
2022/04/12 10:33:19;;;;;;;;;;;17.30;37.30;;;;;;5083700;28;20135;-69
2022/04/12 10:35:44;;;;;;;;;;;17.30;37.00;;;;;;5100640;28;19941;-70
2022/04/12 10:38:11;;;;;;;;;;;17.30;38.40;;;;;;5101584;28;20000;-70
2022/04/12 10:40:36;;;;;;;;;;;17.50;37.70;;;;;;5082927;28;19916;-69
2022/04/12 10:43:02;;;;;;;;;;;17.60;37.40;;;;;;5067203;28;19914;-69
2022/04/12 10:45:34;;;;;;;;;;;17.80;36.60;;;;;;5101443;28;19930;-69
2022/04/12 10:48:00;;;;;;;;;;;17.80;37.40;;;;;;5101333;28;19915;-69
2022/04/12 10:50:26;;;;;;;;;;;18.00;37.30;;;;;;5101686;28;19931;-70
2022/04/12 10:52:52;;;;;;;;;;;18.20;35.20;;;;;;5103810;28;19968;-70
2022/04/12 10:55:19;;;;;;;;;;;18.40;36.70;;;;;;5087831;28;20045;-69
2022/04/12 10:57:45;;;;;;;;;;;18.70;35.90;;;;;;5104803;28;19920;-70
2022/04/12 11:00:15;;;;;;;;;;;18.80;35.80;;;;;;5105860;28;19954;-70
2022/04/12 11:02:53;;;;;;;;;;;19.10;36.20;;;;;;5104696;28;19953;-70
2022/04/12 11:05:37;;;;;;;;;;;19.30;33.80;;;;;;5105421;28;19919;-71
2022/04/12 11:08:07;;;;;;;;;;;19.50;32.60;;;;;;5105972;28;19931;-70
2022/04/12 11:10:32;;;;;;;;;;;19.60;32.60;;;;;;5104547;28;19912;-70
2022/04/12 11:13:08;;;;;;;;;;;19.70;32.60;;;;;;5105327;28;19908;-70
2022/04/12 11:15:34;;;;;;;;;;;19.70;32.50;;;;;;5104603;28;20223;-70
2022/04/12 11:18:18;;;;;;;;;;;19.80;33.20;;;;;;5105677;28;19908;-70
2022/04/12 11:20:48;;;;;;;;;;;19.90;32.00;;;;;;5086346;28;20088;-70
2022/04/12 11:23:14;;;;;;;;;;;20.10;31.00;;;;;;5087841;28;19919;-70
2022/04/12 11:25:50;;;;;;;;;;;20.20;31.30;;;;;;5105288;28;19908;-70
2022/04/12 11:28:21;;;;;;;;;;;20.40;32.40;;;;;;5087143;28;19950;-70
2022/04/12 11:30:57;;;;;;;;;;;20.70;31.30;;;;;;5103869;28;19934;-70
2022/04/12 11:33:27;;;;;;;;;;;20.80;32.80;;;;;;5104978;28;19915;-70
2022/04/12 11:35:53;;;;;;;;;;;21.10;32.40;;;;;;5104471;28;19910;-70
2022/04/12 11:38:20;;;;;;;;;;;21.30;31.10;;;;;;5086199;28;19949;-70
2022/04/12 11:40:45;;;;;;;;;;;21.50;33.10;;;;;;5104543;28;20111;-70
2022/04/12 11:43:24;;;;;;;;;;;21.80;31.90;;;;;;5103823;28;19908;-70
2022/04/12 11:45:56;;;;;;;;;;;22.20;30.60;;;;;;5104875;28;20271;-70
2022/04/12 11:48:22;;;;;;;;;;;22.60;29.60;;;;;;5086251;28;19909;-70
2022/04/12 11:50:52;;;;;;;;;;;22.80;29.40;;;;;;5103796;28;20000;-70
2022/04/12 11:53:18;;;;;;;;;;;22.90;28.90;;;;;;5103691;28;19953;-70
2022/04/12 11:55:47;;;;;;;;;;;23.10;29.00;;;;;;5104582;28;19908;-70
2022/04/12 11:58:13;;;;;;;;;;;22.90;28.90;;;;;;5103418;28;19915;-71
2022/04/12 12:00:39;;;;;;;;;;;23.10;29.80;;;;;;5104239;28;20137;-69
2022/04/12 12:03:05;;;;;;;;;;;23.40;28.00;;;;;;5102967;28;19954;-69
2022/04/12 12:05:31;;;;;;;;;;;23.50;27.10;;;;;;5104295;28;19916;-70
2022/04/12 12:07:58;;;;;;;;;;;23.50;26.70;;;;;;5103620;28;19915;-70
2022/04/12 12:10:23;;;;;;;;;;;24.20;26.20;;;;;;5103953;28;20288;-69
2022/04/12 12:12:49;;;;;;;;;;;25.10;26.50;;;;;;5103544;28;19916;-70
2022/04/12 12:15:19;;;;;;;;;;;26.20;26.50;;;;;;5104201;28;20191;-70
2022/04/12 12:17:45;;;;;;;;;;;27.30;25.60;;;;;;5103442;28;20195;-70
2022/04/12 12:20:12;;;;;;;;;;;28.60;25.20;;;;;;5103873;28;20233;-69
2022/04/12 12:22:38;;;;;;;;;;;29.60;24.50;;;;;;5104062;28;19908;-69
2022/04/12 12:25:04;;;;;;;;;;;30.30;24.10;;;;;;5103447;28;20207;-70
2022/04/12 12:27:31;;;;;;;;;;;30.80;23.60;;;;;;5103756;28;20138;-71
2022/04/12 12:30:11;;;;;;;;;;;30.70;23.10;;;;;;5085065;28;20199;-71
2022/04/12 12:32:38;;;;;;;;;;;30.80;23.80;;;;;;5085322;28;19915;-71
2022/04/12 12:35:08;;;;;;;;;;;32.30;23.00;;;;;;5103852;28;19930;-71
2022/04/12 12:37:34;;;;;;;;;;;33.60;22.50;;;;;;5118467;22;19991;-68
2022/04/12 12:40:00;;;;;;;;;;;34.20;22.00;;;;;;5104541;28;19915;-69
2022/04/12 12:42:35;;;;;;;;;;;35.00;21.30;;;;;;5092846;28;19916;-69
2022/04/12 12:45:09;;;;;;;;;;;34.30;21.20;;;;;;5066781;28;19908;-68
2022/04/12 12:47:35;;;;;;;;;;;35.80;21.10;;;;;;5046671;28;19988;-69
2022/04/12 12:50:03;;;;;;;;;;;36.00;21.60;;;;;;5063160;28;20128;-70
2022/04/12 12:52:30;;;;;;;;;;;36.70;21.30;;;;;;5063692;28;19924;-70
2022/04/12 12:54:55;;;;;;;;;;;37.80;20.20;;;;;;5064262;28;19955;-69
2022/04/12 12:57:37;;;;;;;;;;;38.10;20.10;;;;;;5064015;28;19909;-70
2022/04/12 13:00:04;;;;;;;;;;;37.10;20.60;;;;;;5064191;28;19923;-69
2022/04/12 13:02:33;;;;;;;;;;;38.00;19.90;;;;;;5046062;28;19924;-70
2022/04/12 13:05:04;;;;;;;;;;;38.70;19.90;;;;;;5063150;28;19912;-70
2022/04/12 13:07:34;;;;;;;;;;;39.30;19.90;;;;;;5062530;28;19923;-70
2022/04/12 13:10:10;;;;;;;;;;;39.30;19.50;;;;;;5063767;28;20004;-68
2022/04/12 13:12:36;;;;;;;;;;;39.00;19.80;;;;;;5063523;28;19971;-68
2022/04/12 13:15:03;;;;;;;;;;;39.20;19.30;;;;;;5061927;28;19970;-69
2022/04/12 13:17:29;;;;;;;;;;;38.00;20.00;;;;;;5062635;28;19913;-69
2022/04/12 13:19:56;;;;;;;;;;;38.10;20.10;;;;;;5063795;28;19957;-69
2022/04/12 13:22:24;;;;;;;;;;;38.30;19.50;;;;;;5063133;28;19915;-70
2022/04/12 13:24:49;;;;;;;;;;;38.10;19.50;;;;;;5063658;28;19963;-68
2022/04/12 13:27:15;;;;;;;;;;;38.30;19.50;;;;;;5063491;28;20192;-69
2022/04/12 13:29:41;;;;;;;;;;;37.70;20.20;;;;;;5062409;28;19913;-69
2022/04/12 13:32:07;;;;;;;;;;;37.80;19.40;;;;;;5063131;28;20093;-70
2022/04/12 13:34:33;;;;;;;;;;;38.00;19.00;;;;;;5062425;28;20011;-69
2022/04/12 13:36:58;;;;;;;;;;;38.10;18.80;;;;;;5062965;28;19913;-69
2022/04/12 13:39:24;;;;;;;;;;;38.10;19.00;;;;;;5063243;28;19919;-68
2022/04/12 13:41:50;;;;;;;;;;;38.80;19.00;;;;;;5063055;28;20092;-68
2022/04/12 13:44:15;;;;;;;;;;;38.50;19.00;;;;;;5045461;28;19909;-69
2022/04/12 13:46:41;;;;;;;;;;;38.00;19.20;;;;;;5063247;28;19909;-69
2022/04/12 13:49:07;;;;;;;;;;;37.80;19.20;;;;;;5062194;28;19944;-69
2022/04/12 13:51:33;;;;;;;;;;;36.90;19.30;;;;;;5062356;28;19923;-71
2022/04/12 13:53:58;;;;;;;;;;;36.60;20.70;;;;;;5063749;28;19908;-68
2022/04/12 13:56:24;;;;;;;;;;;37.30;19.90;;;;;;5062931;28;19932;-69
2022/04/12 13:58:50;;;;;;;;;;;37.40;20.60;;;;;;5063412;28;19916;-69
2022/04/12 14:01:15;;;;;;;;;;;37.30;20.50;;;;;;5063223;28;19909;-69
2022/04/12 14:03:41;;;;;;;;;;;38.40;19.60;;;;;;5062169;28;19913;-69
2022/04/12 14:06:07;;;;;;;;;;;38.50;19.80;;;;;;5062090;28;20199;-68
2022/04/12 14:08:33;;;;;;;;;;;38.30;19.70;;;;;;5062733;28;19909;-69
2022/04/12 14:10:59;;;;;;;;;;;37.40;20.10;;;;;;5062693;28;19913;-69
2022/04/12 14:13:25;;;;;;;;;;;36.50;20.40;;;;;;5062664;28;19944;-69
2022/04/12 14:15:51;;;;;;;;;;;35.70;20.30;;;;;;5061895;28;20046;-69
2022/04/12 14:18:17;;;;;;;;;;;36.70;20.10;;;;;;5061756;28;19913;-69
2022/04/12 14:20:42;;;;;;;;;;;35.80;20.50;;;;;;5062505;28;20218;-68
2022/04/12 14:23:11;;;;;;;;;;;34.90;21.20;;;;;;5061473;28;19944;-68
2022/04/12 14:25:37;;;;;;;;;;;34.70;21.30;;;;;;5062765;28;19909;-68